Time;durP1;ratioP1;P1;durP2;ratioP2;P2;SDS_P1;SDS_P2;PMS_P1;PMS_P2;Temp;Humidity;BMP_temperature;BMP_pressure;BME280_temperature;BME280_humidity;BME280_pressure;Samples;Min_cycle;Max_cycle;Signal;HPM_P1;HPM_P2
2022/12/17 13:08:02;;;;;;;;;;;;;;;-2.03;47.62;102289.53;5107843;28;19927;-88
2022/12/17 13:10:31;;;;;;;;;;;;;;;-1.99;47.60;102291.31;5092675;28;19972;-80
2022/12/17 13:13:06;;;;;;;;;;;;;;;-1.97;47.75;102294.84;5105414;28;20193;-78
2022/12/17 13:15:36;;;;;;;;;;;;;;;-1.94;47.63;102293.00;5081587;28;19999;-79
2022/12/17 13:18:14;;;;;;;;;;;;;;;-1.91;47.74;102278.66;5101691;28;19959;-78
2022/12/17 13:20:44;;;;;;;;;;;;;;;-1.88;47.73;102284.00;5091838;28;20216;-78
2022/12/17 13:23:27;;;;;;;;;;;;;;;-1.85;47.66;102281.25;5107652;28;19919;-78
2022/12/17 13:26:19;;;;;;;;;;;;;;;-1.83;47.50;102279.47;5089044;28;19924;-78
2022/12/17 13:28:58;;;;;;;;;;;;;;;-1.80;47.64;102274.06;5063182;28;19924;-78
2022/12/17 13:31:26;;;;;;;;;;;;;;;-1.78;47.49;102276.69;5090779;28;20003;-78
2022/12/17 13:33:57;;;;;;;;;;;;;;;-1.76;47.36;102272.19;5109167;28;19946;-78
2022/12/17 13:36:30;;;;;;;;;;;;;;;-1.75;47.54;102272.19;5108682;28;19935;-78
2022/12/17 13:39:05;;;;;;;;;;;;;;;-1.74;47.50;102268.59;5089928;28;20281;-77
2022/12/17 13:41:33;;;;;;;;;;;;;;;-1.72;47.55;102265.91;5086238;28;19973;-76
2022/12/17 13:44:02;;;;;;;;;;;;;;;-1.71;47.56;102265.00;5102513;28;19950;-79
2022/12/17 13:46:35;;;;;;;;;;;;;;;-1.69;47.62;102261.34;5102156;28;19986;-79
2022/12/17 13:49:17;;;;;;;;;;;;;;;-1.69;47.45;102272.09;5082219;28;20435;-78
2022/12/17 13:51:46;;;;;;;;;;;;;;;-1.69;47.15;102269.41;5092220;28;19958;-77
2022/12/17 13:54:16;;;;;;;;;;;;;;;-1.69;47.53;102258.66;5089288;28;20400;-76
2022/12/17 13:56:45;;;;;;;;;;;;;;;-1.70;47.11;102259.56;5086793;28;19919;-77
2022/12/17 13:59:17;;;;;;;;;;;;;;;-1.70;47.23;102262.25;5091016;28;20195;-78
2022/12/17 14:01:45;;;;;;;;;;;;;;;-1.70;47.24;102258.69;5107543;28;20029;-78
2022/12/17 14:04:19;;;;;;;;;;;;;;;-1.71;47.08;102259.63;5107286;22;20395;-74
2022/12/17 14:06:49;;;;;;;;;;;;;;;-1.71;47.38;102263.19;5082422;28;19927;-74
2022/12/17 14:09:18;;;;;;;;;;;;;;;-1.71;47.30;102267.69;5082274;28;19924;-72
2022/12/17 14:14:33;;;;;;;;;;;;;;;-1.70;47.56;102267.63;5071171;28;19999;-74
2022/12/17 14:17:01;;;;;;;;;;;;;;;-1.69;47.32;102269.41;5077731;28;19973;-73
2022/12/17 14:19:30;;;;;;;;;;;;;;;-1.68;47.61;102268.50;5076118;28;20297;-72
2022/12/17 14:22:00;;;;;;;;;;;;;;;-1.66;47.20;102277.44;5058363;28;19927;-73
2022/12/17 14:24:28;;;;;;;;;;;;;;;-1.64;47.18;102280.09;5076114;28;20015;-73
2022/12/17 14:26:57;;;;;;;;;;;;;;;-1.64;47.61;102285.47;5072484;28;19927;-72
2022/12/17 14:29:26;;;;;;;;;;;;;;;-1.63;47.34;102282.75;5071499;28;20386;-73
2022/12/17 14:31:55;;;;;;;;;;;;;;;-1.61;47.35;102280.91;5088362;28;19928;-73
2022/12/17 14:34:23;;;;;;;;;;;;;;;-1.62;47.34;102276.47;5085075;28;19935;-73
2022/12/17 14:36:56;;;;;;;;;;;;;;;-1.60;47.48;102287.19;5083758;28;19931;-72
2022/12/17 14:39:27;;;;;;;;;;;;;;;-1.60;47.51;102285.38;5078934;28;20069;-73
2022/12/17 14:44:49;;;;;;;;;;;;;;;-1.59;47.38;102272.84;5066583;28;19954;-73
2022/12/17 14:47:18;;;;;;;;;;;;;;;-1.58;47.64;102278.19;5083948;28;19928;-73
2022/12/17 14:49:54;;;;;;;;;;;;;;;-1.57;47.44;102274.63;5083820;28;19924;-72
2022/12/17 14:52:26;;;;;;;;;;;;;;;-1.57;47.47;102281.78;5078060;28;19923;-71
2022/12/17 14:54:55;;;;;;;;;;;;;;;-1.56;47.67;102278.19;5057752;28;20008;-71
2022/12/17 14:57:23;;;;;;;;;;;;;;;-1.54;47.38;102278.16;5085510;28;19924;-71
2022/12/17 14:59:51;;;;;;;;;;;;;;;-1.53;47.47;102278.13;5060065;28;19931;-74
2022/12/17 15:02:22;;;;;;;;;;;;;;;-1.52;47.69;102279.91;5088949;28;19985;-71
2022/12/17 15:04:51;;;;;;;;;;;;;;;-1.51;47.50;102286.16;5062799;28;20437;-71
2022/12/17 15:07:22;;;;;;;;;;;;;;;-1.50;47.41;102282.56;5059448;28;19928;-73
2022/12/17 15:09:51;;;;;;;;;;;;;;;-1.50;47.30;102279.88;5081299;28;20057;-71
2022/12/17 15:12:21;;;;;;;;;;;;;;;-1.50;47.25;102279.88;5075161;28;19920;-75
2022/12/17 15:14:48;;;;;;;;;;;;;;;-1.49;47.27;102287.03;5051605;28;20510;-73
2022/12/17 15:17:17;;;;;;;;;;;;;;;-1.48;47.39;102286.13;5080956;28;19985;-74
2022/12/17 15:19:44;;;;;;;;;;;;;;;-1.50;47.21;102285.25;5078552;28;19924;-74
2022/12/17 15:22:16;;;;;;;;;;;;;;;-1.51;47.32;102284.38;5056751;28;19981;-74
2022/12/17 15:24:44;;;;;;;;;;;;;;;-1.51;47.16;102289.72;5076060;28;20363;-76
2022/12/17 15:27:13;;;;;;;;;;;;;;;-1.50;47.14;102277.19;5075261;28;20462;-75
2022/12/17 15:29:42;;;;;;;;;;;;;;;-1.51;47.44;102292.41;5073061;28;19942;-75
2022/12/17 15:32:12;;;;;;;;;;;;;;;-1.51;47.22;102288.84;5075722;28;20014;-73
2022/12/17 15:34:40;;;;;;;;;;;;;;;-1.51;47.38;102294.22;5069554;28;19921;-75
2022/12/17 15:37:07;;;;;;;;;;;;;;;-1.51;47.20;102302.25;5069750;28;19935;-74
2022/12/17 15:39:35;;;;;;;;;;;;;;;-1.52;47.16;102305.84;5053888;28;19920;-74
2022/12/17 15:44:49;;;;;;;;;;;;;;;-1.56;47.20;102300.56;5074858;28;20410;-73
2022/12/17 15:47:17;;;;;;;;;;;;;;;-1.57;47.24;102297.88;5068144;28;19920;-74
2022/12/17 15:49:45;;;;;;;;;;;;;;;-1.60;47.04;102301.50;5058150;28;19974;-75
2022/12/17 15:52:14;;;;;;;;;;;;;;;-1.59;47.03;102299.69;5077316;28;19966;-73
2022/12/17 15:54:41;;;;;;;;;;;;;;;-1.61;46.86;102307.75;5080796;28;20296;-74
2022/12/17 15:57:09;;;;;;;;;;;;;;;-1.62;46.82;102305.09;5082879;28;19920;-74
2022/12/17 15:59:44;;;;;;;;;;;;;;;-1.64;47.19;102306.94;5071311;28;19920;-74
2022/12/17 16:02:13;;;;;;;;;;;;;;;-1.66;47.02;102306.94;5090695;28;19927;-75
2022/12/17 16:04:41;;;;;;;;;;;;;;;-1.68;47.01;102310.56;5089535;28;20398;-74
2022/12/17 16:07:09;;;;;;;;;;;;;;;-1.69;46.83;102309.66;5086047;28;19920;-74
2022/12/17 16:09:36;;;;;;;;;;;;;;;-1.71;46.93;102314.19;5077270;28;19924;-74
2022/12/17 16:12:04;;;;;;;;;;;;;;;-1.72;46.97;102308.84;5088100;28;19927;-76
2022/12/17 16:14:32;;;;;;;;;;;;;;;-1.73;47.00;102323.16;5072363;28;19921;-74
2022/12/17 16:17:00;;;;;;;;;;;;;;;-1.74;47.00;102324.06;5086962;28;20342;-74
2022/12/17 16:19:29;;;;;;;;;;;;;;;-1.76;46.88;102324.09;5078235;28;19931;-74
2022/12/17 16:21:56;;;;;;;;;;;;;;;-1.76;46.84;102316.03;5085381;28;19920;-74
2022/12/17 16:24:24;;;;;;;;;;;;;;;-1.78;46.97;102315.16;5058001;28;20188;-74
2022/12/17 16:26:52;;;;;;;;;;;;;;;-1.79;47.16;102321.44;5070231;28;20283;-74
2022/12/17 16:29:19;;;;;;;;;;;;;;;-1.80;46.96;102333.09;5076996;28;20011;-74
2022/12/17 16:31:48;;;;;;;;;;;;;;;-1.82;46.91;102329.53;5087355;28;19932;-74
2022/12/17 16:34:16;;;;;;;;;;;;;;;-1.82;46.89;102331.34;5074165;28;19920;-74
2022/12/17 16:36:48;;;;;;;;;;;;;;;-1.84;46.67;102331.34;5080549;28;19920;-70
2022/12/17 16:39:16;;;;;;;;;;;;;;;-1.85;46.92;102336.72;5075207;28;19924;-71
2022/12/17 16:41:44;;;;;;;;;;;;;;;-1.87;46.87;102336.75;5072307;28;19927;-72
2022/12/17 16:44:12;;;;;;;;;;;;;;;-1.87;46.94;102334.06;5074376;28;19935;-73
2022/12/17 16:46:41;;;;;;;;;;;;;;;-1.89;47.01;102329.63;5075918;28;20334;-71
2022/12/17 16:49:09;;;;;;;;;;;;;;;-1.90;46.97;102336.81;5065122;28;19948;-73
2022/12/17 16:51:37;;;;;;;;;;;;;;;-1.91;47.16;102345.75;5077579;28;20010;-73
2022/12/17 16:54:11;;;;;;;;;;;;;;;-1.92;47.04;102341.28;5075210;28;19924;-73
2022/12/17 16:56:39;;;;;;;;;;;;;;;-1.93;46.76;102334.13;5078976;28;20009;-73
2022/12/17 16:59:08;;;;;;;;;;;;;;;-1.94;46.93;102343.09;5074279;28;19920;-73
2022/12/17 17:01:36;;;;;;;;;;;;;;;-1.95;47.13;102339.53;5082863;28;19924;-75
2022/12/17 17:04:04;;;;;;;;;;;;;;;-1.95;47.12;102346.69;5070370;28;19920;-75
2022/12/17 17:06:33;;;;;;;;;;;;;;;-1.97;46.95;102349.41;5054313;28;20386;-74
2022/12/17 17:09:02;;;;;;;;;;;;;;;-1.97;46.81;102345.84;5079868;28;20563;-71
2022/12/17 17:11:31;;;;;;;;;;;;;;;-1.98;47.25;102344.94;5085346;28;19924;-72
2022/12/17 17:13:59;;;;;;;;;;;;;;;-1.98;47.11;102350.31;5059876;28;19928;-72
2022/12/17 17:16:27;;;;;;;;;;;;;;;-1.99;47.06;102339.59;5080952;28;19920;-72
2022/12/17 17:18:55;;;;;;;;;;;;;;;-1.98;47.23;102336.00;5077933;28;19928;-72
2022/12/17 17:21:27;;;;;;;;;;;;;;;-1.98;47.21;102341.38;5079532;28;19921;-72
2022/12/17 17:23:56;;;;;;;;;;;;;;;-1.98;47.02;102352.09;5085681;28;19932;-72
2022/12/17 17:26:24;;;;;;;;;;;;;;;-2.01;46.92;102344.97;5067822;28;19924;-72
2022/12/17 17:28:53;;;;;;;;;;;;;;;-2.01;46.84;102350.34;5070973;28;19921;-72
2022/12/17 17:31:21;;;;;;;;;;;;;;;-2.01;47.01;102346.75;5064924;28;19948;-72
2022/12/17 17:33:57;;;;;;;;;;;;;;;-2.03;47.00;102346.78;5076540;28;19932;-72
2022/12/17 17:36:28;;;;;;;;;;;;;;;-2.04;47.12;102354.88;5077945;28;20292;-71
2022/12/17 17:38:57;;;;;;;;;;;;;;;-2.05;46.92;102363.81;5074539;28;19981;-71
2022/12/17 17:41:26;;;;;;;;;;;;;;;-2.06;46.80;102362.91;5059832;28;19928;-70
2022/12/17 17:43:56;;;;;;;;;;;;;;;-2.07;46.70;102376.34;5077938;28;19920;-71
2022/12/17 17:46:24;;;;;;;;;;;;;;;-2.09;46.62;102373.69;5076175;28;20011;-72
2022/12/17 17:48:51;;;;;;;;;;;;;;;-2.10;46.84;102363.84;5074835;28;19951;-73
2022/12/17 17:51:24;;;;;;;;;;;;;;;-2.11;47.04;102356.69;5069820;28;20015;-72
2022/12/17 17:54:12;;;;;;;;;;;;;;;-2.11;46.65;102366.53;5079354;28;19921;-73
2022/12/17 17:56:41;;;;;;;;;;;;;;;-2.11;46.91;102363.84;5073229;28;19931;-72
2022/12/17 17:59:12;;;;;;;;;;;;;;;-2.11;46.95;102363.84;5077618;28;20287;-72
2022/12/17 18:01:41;;;;;;;;;;;;;;;-2.12;46.89;102362.97;5077698;28;19930;-72
2022/12/17 18:04:10;;;;;;;;;;;;;;;-2.12;47.09;102356.75;5074076;28;20347;-72
2022/12/17 18:06:39;;;;;;;;;;;;;;;-2.13;46.89;102363.91;5077234;28;20388;-72
2022/12/17 18:09:19;;;;;;;;;;;;;;;-2.12;46.77;102362.13;5083958;28;20010;-70
2022/12/17 18:11:47;;;;;;;;;;;;;;;-2.14;47.04;102361.22;5078770;28;20422;-70
2022/12/17 18:14:16;;;;;;;;;;;;;;;-2.14;46.60;102363.91;5075717;28;20319;-72
2022/12/17 18:16:46;;;;;;;;;;;;;;;-2.15;46.57;102363.03;5065503;28;19920;-72
2022/12/17 18:19:15;;;;;;;;;;;;;;;-2.15;46.92;102362.13;5083811;28;19924;-72
2022/12/17 18:21:43;;;;;;;;;;;;;;;-2.16;46.76;102357.66;5064351;28;19924;-73
2022/12/17 18:24:11;;;;;;;;;;;;;;;-2.18;46.88;102360.38;5079801;28;19927;-73
2022/12/17 18:26:41;;;;;;;;;;;;;;;-2.18;46.73;102363.03;5076911;28;19924;-72
2022/12/17 18:29:10;;;;;;;;;;;;;;;-2.19;46.92;102372.00;5057679;28;19943;-72
2022/12/17 18:31:39;;;;;;;;;;;;;;;-2.20;46.71;102367.53;5085669;28;20345;-71
2022/12/17 18:34:07;;;;;;;;;;;;;;;-2.19;46.80;102365.75;5091047;28;19927;-71
2022/12/17 18:36:37;;;;;;;;;;;;;;;-2.22;46.49;102358.63;5083424;28;19928;-72
2022/12/17 18:39:06;;;;;;;;;;;;;;;-2.22;46.83;102369.38;5091100;28;19920;-73
2022/12/17 18:44:19;;;;;;;;;;;;;;;-2.25;46.76;102365.81;5079536;28;19990;-73
2022/12/17 18:46:49;;;;;;;;;;;;;;;-2.25;46.60;102374.75;5075739;28;20384;-72
2022/12/17 18:49:17;;;;;;;;;;;;;;;-2.26;46.55;102369.41;5083773;28;21830;-72
2022/12/17 18:51:46;;;;;;;;;;;;;;;-2.27;46.57;102371.19;5059907;28;19927;-74
2022/12/17 18:54:15;;;;;;;;;;;;;;;-2.28;46.56;102373.91;5085209;28;19973;-74
2022/12/17 18:56:42;;;;;;;;;;;;;;;-2.29;46.54;102380.16;5077206;28;19924;-73
2022/12/17 18:59:29;;;;;;;;;;;;;;;-2.30;46.62;102383.75;5073418;28;19943;-73
2022/12/17 19:01:59;;;;;;;;;;;;;;;-2.30;46.58;102386.44;5076343;28;19928;-72
2022/12/17 19:04:27;;;;;;;;;;;;;;;-2.31;46.61;102385.53;5081300;28;19919;-73
2022/12/17 19:06:55;;;;;;;;;;;;;;;-2.32;46.54;102389.13;5058581;28;19924;-73
2022/12/17 19:09:24;;;;;;;;;;;;;;;-2.32;46.64;102394.50;5076439;28;19920;-73
2022/12/17 19:11:52;;;;;;;;;;;;;;;-2.33;46.56;102396.28;5080601;28;19954;-74
2022/12/17 19:14:21;;;;;;;;;;;;;;;-2.33;46.50;102388.22;5080801;28;19969;-74
2022/12/17 19:16:49;;;;;;;;;;;;;;;-2.33;46.56;102396.28;5079332;28;19990;-74
2022/12/17 19:19:19;;;;;;;;;;;;;;;-2.34;46.71;102390.94;5060868;28;19920;-74
2022/12/17 19:21:47;;;;;;;;;;;;;;;-2.33;46.36;102401.63;5088550;28;19927;-74
2022/12/17 19:24:16;;;;;;;;;;;;;;;-2.34;46.49;102393.59;5084677;28;20384;-75
2022/12/17 19:26:44;;;;;;;;;;;;;;;-2.33;46.69;102393.59;5081311;28;19920;-73
2022/12/17 19:29:12;;;;;;;;;;;;;;;-2.32;46.44;102384.66;5084639;28;19920;-73
2022/12/17 19:31:40;;;;;;;;;;;;;;;-2.32;46.69;102386.44;5090244;28;19920;-74
2022/12/17 19:34:11;;;;;;;;;;;;;;;-2.30;46.78;102392.69;5090681;28;20606;-73
2022/12/17 19:36:40;;;;;;;;;;;;;;;-2.30;46.55;102389.13;5086828;28;20339;-73
2022/12/17 19:39:10;;;;;;;;;;;;;;;-2.29;46.67;102390.91;5076859;28;19925;-74
2022/12/17 19:41:38;;;;;;;;;;;;;;;-2.30;46.33;102394.47;5067009;28;19920;-74
2022/12/17 19:44:07;;;;;;;;;;;;;;;-2.31;46.37;102398.94;5080792;28;20007;-75
2022/12/17 19:46:35;;;;;;;;;;;;;;;-2.32;46.24;102392.69;5080054;28;19924;-74
2022/12/17 19:49:03;;;;;;;;;;;;;;;-2.33;46.14;102390.91;5074792;28;19921;-74
2022/12/17 19:51:32;;;;;;;;;;;;;;;-2.32;46.34;102391.81;5077827;28;19920;-72
2022/12/17 19:54:01;;;;;;;;;;;;;;;-2.32;46.39;102391.81;5061427;28;19920;-71
2022/12/17 19:56:36;;;;;;;;;;;;;;;-2.33;46.32;102392.72;5077154;28;19924;-72
2022/12/17 19:59:05;;;;;;;;;;;;;;;-2.33;46.34;102398.97;5075884;28;19919;-72
2022/12/17 20:01:35;;;;;;;;;;;;;;;-2.34;46.16;102405.22;5065813;28;19920;-71
2022/12/17 20:04:03;;;;;;;;;;;;;;;-2.32;46.49;102407.91;5103082;22;19920;-78
2022/12/17 20:06:33;;;;;;;;;;;;;;;-2.33;46.34;102409.69;5074159;28;19959;-78
2022/12/17 20:09:03;;;;;;;;;;;;;;;-2.33;46.33;102412.38;5098272;28;20349;-78
2022/12/17 20:11:35;;;;;;;;;;;;;;;-2.32;46.39;102408.78;5074689;28;19920;-80
2022/12/17 20:14:04;;;;;;;;;;;;;;;-2.32;46.32;102418.63;5088877;28;19920;-80
2022/12/17 20:16:36;;;;;;;;;;;;;;;-2.32;46.56;102427.56;5078455;28;19924;-82
2022/12/17 20:19:06;;;;;;;;;;;;;;;-2.31;46.39;102425.75;5076919;28;19924;-82
2022/12/17 20:21:34;;;;;;;;;;;;;;;-2.34;46.08;102415.94;5093255;28;19995;-80
2022/12/17 20:24:03;;;;;;;;;;;;;;;-2.33;46.13;102417.72;5092966;28;19943;-82
2022/12/17 20:26:31;;;;;;;;;;;;;;;-2.33;46.17;102416.84;5095278;28;19998;-81
2022/12/17 20:28:59;;;;;;;;;;;;;;;-2.33;46.00;102416.84;5077418;28;19986;-80
2022/12/17 20:31:27;;;;;;;;;;;;;;;-2.33;46.11;102427.56;5092677;28;19975;-82
2022/12/17 20:33:54;;;;;;;;;;;;;;;-2.33;46.32;102432.94;5081877;28;20014;-82
2022/12/17 20:36:22;;;;;;;;;;;;;;;-2.33;46.30;102428.44;5076430;28;20371;-82
2022/12/17 20:38:50;;;;;;;;;;;;;;;-2.33;46.33;102433.81;5094238;28;20359;-82
2022/12/17 20:41:20;;;;;;;;;;;;;;;-2.33;46.41;102428.44;5091822;28;19958;-82
2022/12/17 20:43:48;;;;;;;;;;;;;;;-2.32;46.37;102435.59;5076137;28;19931;-82
2022/12/17 20:46:16;;;;;;;;;;;;;;;-2.33;46.25;102431.13;5076659;28;20329;-82
2022/12/17 20:48:44;;;;;;;;;;;;;;;-2.33;46.51;102433.81;5076352;28;19920;-80
2022/12/17 20:51:13;;;;;;;;;;;;;;;-2.31;46.38;102441.84;5098349;28;19927;-83
2022/12/17 20:53:41;;;;;;;;;;;;;;;-2.31;46.24;102441.84;5087811;28;19920;-83
2022/12/17 20:56:10;;;;;;;;;;;;;;;-2.31;46.51;102439.19;5075411;28;19920;-80
2022/12/17 20:58:39;;;;;;;;;;;;;;;-2.30;46.26;102440.97;5076526;28;19920;-82
2022/12/17 21:01:09;;;;;;;;;;;;;;;-2.29;46.49;102444.53;5082935;28;19920;-83
2022/12/17 21:03:37;;;;;;;;;;;;;;;-2.31;46.04;102449.91;5095894;28;19965;-82
2022/12/17 21:06:07;;;;;;;;;;;;;;;-2.30;46.43;102448.09;5095405;28;20378;-81
2022/12/17 21:08:35;;;;;;;;;;;;;;;-2.31;46.26;102447.22;5076292;28;19924;-82
2022/12/17 21:11:04;;;;;;;;;;;;;;;-2.32;46.10;102440.06;5085548;28;19920;-81
2022/12/17 21:13:31;;;;;;;;;;;;;;;-2.31;46.23;102441.84;5071699;28;19920;-83
2022/12/17 21:16:02;;;;;;;;;;;;;;;-2.30;46.28;102440.06;5098644;28;19924;-83
2022/12/17 21:18:30;;;;;;;;;;;;;;;-2.30;46.16;102432.03;5094558;28;20354;-82
2022/12/17 21:21:00;;;;;;;;;;;;;;;-2.29;46.20;102440.06;5087159;28;19951;-83
2022/12/17 21:23:28;;;;;;;;;;;;;;;-2.29;46.12;102439.16;5080466;28;19920;-81
2022/12/17 21:25:59;;;;;;;;;;;;;;;-2.29;46.37;102442.75;5077363;28;19919;-83
2022/12/17 21:28:28;;;;;;;;;;;;;;;-2.29;46.03;102448.09;5079036;28;19920;-82
2022/12/17 21:30:56;;;;;;;;;;;;;;;-2.29;46.29;102436.47;5075184;28;19920;-82
2022/12/17 21:33:25;;;;;;;;;;;;;;;-2.30;46.29;102440.97;5074780;28;19935;-83
2022/12/17 21:35:57;;;;;;;;;;;;;;;-2.29;46.21;102445.41;5080953;28;19998;-83
2022/12/17 21:38:25;;;;;;;;;;;;;;;-2.27;46.05;102440.00;5087887;28;20402;-83
2022/12/17 21:40:53;;;;;;;;;;;;;;;-2.28;46.25;102440.94;5096328;28;19928;-81
2022/12/17 21:43:21;;;;;;;;;;;;;;;-2.28;46.15;102430.22;5091291;28;20370;-83
2022/12/17 21:45:49;;;;;;;;;;;;;;;-2.27;46.08;102434.66;5091592;28;20305;-83
2022/12/17 21:48:16;;;;;;;;;;;;;;;-2.28;45.94;102424.84;5085102;28;19920;-82
2022/12/17 21:50:45;;;;;;;;;;;;;;;-2.28;46.19;102428.41;5071361;28;20480;-83
2022/12/17 21:53:14;;;;;;;;;;;;;;;-2.27;46.36;102426.59;5092298;28;20090;-82
2022/12/17 21:55:42;;;;;;;;;;;;;;;-2.27;46.06;102434.66;5090069;28;19927;-82
2022/12/17 21:58:10;;;;;;;;;;;;;;;-2.25;46.20;102438.22;5102937;28;19973;-81
2022/12/17 22:00:38;;;;;;;;;;;;;;;-2.26;45.96;102447.16;5071353;28;19966;-82
2022/12/17 22:03:05;;;;;;;;;;;;;;;-2.25;45.88;102443.59;5089271;28;19939;-82
2022/12/17 22:05:35;;;;;;;;;;;;;;;-2.25;46.45;102449.84;5072495;28;19920;-82
2022/12/17 22:08:05;;;;;;;;;;;;;;;-2.25;45.98;102446.25;5078975;28;20014;-82
2022/12/17 22:10:33;;;;;;;;;;;;;;;-2.27;46.23;102442.69;5087201;28;19926;-81
2022/12/17 22:16:00;;;;;;;;;;;;;;;-2.26;45.97;102455.22;5085118;28;19927;-82
2022/12/17 22:18:27;;;;;;;;;;;;;;;-2.28;46.05;102455.22;5073312;28;20483;-82
2022/12/17 22:20:58;;;;;;;;;;;;;;;-2.28;46.01;102455.22;5073826;28;19920;-81
2022/12/17 22:23:28;;;;;;;;;;;;;;;-2.29;45.94;102450.78;5084761;28;20008;-82
2022/12/17 22:25:56;;;;;;;;;;;;;;;-2.29;45.97;102440.06;5079627;28;19920;-83
2022/12/17 22:28:23;;;;;;;;;;;;;;;-2.30;46.06;102443.63;5099585;28;20339;-82
2022/12/17 22:33:49;;;;;;;;;;;;;;;-2.32;45.73;102448.13;5091040;28;19930;-81
2022/12/17 22:36:37;;;;;;;;;;;;;;;-2.32;45.84;102456.16;5072286;28;19920;-81
2022/12/17 22:39:26;;;;;;;;;;;;;;;-2.33;45.70;102466.00;5067769;28;20030;-80
2022/12/17 22:45:31;;;;;;;;;;;;;;;-2.34;45.70;102461.53;5039417;28;19925;-81
2022/12/17 22:47:59;;;;;;;;;;;;;;;-2.34;45.74;102458.84;5087269;28;19943;-82
2022/12/17 22:50:26;;;;;;;;;;;;;;;-2.33;45.95;102459.75;5078131;28;20400;-80
2022/12/17 22:53:01;;;;;;;;;;;;;;;-2.32;45.99;102462.41;5105126;28;19924;-81
2022/12/17 22:55:31;;;;;;;;;;;;;;;-2.32;46.05;102467.78;5084855;28;19927;-80
2022/12/17 22:57:59;;;;;;;;;;;;;;;-2.29;45.96;102476.72;5082337;28;19942;-81
2022/12/17 23:00:30;;;;;;;;;;;;;;;-2.28;45.94;102478.50;5081267;28;19939;-82
2022/12/17 23:03:00;;;;;;;;;;;;;;;-2.26;46.07;102471.28;5099095;28;20397;-80
2022/12/17 23:05:28;;;;;;;;;;;;;;;-2.24;45.95;102480.22;5082603;28;19920;-81
2022/12/17 23:07:57;;;;;;;;;;;;;;;-2.23;46.00;102476.66;5079452;28;19959;-80
2022/12/17 23:10:25;;;;;;;;;;;;;;;-2.22;46.00;102473.97;5087063;28;19928;-80
2022/12/17 23:12:55;;;;;;;;;;;;;;;-2.21;45.89;102474.84;5097118;28;19977;-79
2022/12/17 23:15:25;;;;;;;;;;;;;;;-2.20;45.91;102474.81;5094391;28;19926;-78
2022/12/17 23:17:54;;;;;;;;;;;;;;;-2.17;46.15;102473.91;5092172;28;19926;-77
2022/12/17 23:20:22;;;;;;;;;;;;;;;-2.16;46.24;102473.00;5077672;28;20447;-79
2022/12/17 23:22:50;;;;;;;;;;;;;;;-2.16;46.12;102465.84;5097699;28;20018;-79
2022/12/17 23:25:17;;;;;;;;;;;;;;;-2.14;46.33;102468.53;5077045;28;20544;-78
2022/12/17 23:27:45;;;;;;;;;;;;;;;-2.13;46.24;102471.19;5075120;28;20403;-81
2022/12/17 23:30:15;;;;;;;;;;;;;;;-2.12;46.08;102469.41;5078385;28;20405;-79
2022/12/17 23:32:43;;;;;;;;;;;;;;;-2.11;46.16;102476.53;5083947;28;19919;-80
2022/12/17 23:35:11;;;;;;;;;;;;;;;-2.10;46.10;102478.31;5091419;28;19920;-78
2022/12/17 23:37:40;;;;;;;;;;;;;;;-2.08;46.00;102476.50;5089833;28;19986;-80
2022/12/17 23:40:08;;;;;;;;;;;;;;;-2.08;46.12;102476.50;5075156;28;19920;-80
2022/12/17 23:42:36;;;;;;;;;;;;;;;-2.07;46.05;102473.81;5078558;28;20226;-80
2022/12/17 23:45:05;;;;;;;;;;;;;;;-2.06;46.15;102474.69;5077005;28;19924;-81
2022/12/17 23:47:34;;;;;;;;;;;;;;;-2.06;45.94;102466.66;5095570;28;19927;-81
2022/12/17 23:50:02;;;;;;;;;;;;;;;-2.06;46.14;102475.59;5085194;28;19923;-80
2022/12/17 23:52:30;;;;;;;;;;;;;;;-2.05;45.94;102469.31;5078630;28;19920;-79
2022/12/17 23:54:57;;;;;;;;;;;;;;;-2.06;46.06;102459.50;5079394;28;19970;-80
2022/12/17 23:57:25;;;;;;;;;;;;;;;-2.06;46.07;102456.81;5079519;28;20301;-80
2022/12/17 23:59:53;;;;;;;;;;;;;;;-2.06;45.80;102453.25;5097601;28;19942;-81
